createdAt,value
2022-08-05T00:00:09.232Z,100793.77
2022-08-05T00:00:46.731Z,100794.23
2022-08-05T00:01:20.949Z,100793.47
2022-08-05T00:01:50.519Z,100794.77
2022-08-05T00:02:23.287Z,100795.81
2022-08-05T00:02:53.691Z,100794.83
2022-08-05T00:03:24.203Z,100794.88
2022-08-05T00:03:57.061Z,100792.36
2022-08-05T00:04:27.786Z,100789.73
2022-08-05T00:04:58.445Z,100793.93
2022-08-05T00:06:06.383Z,100789.52
2022-08-05T00:06:20.249Z,100790.11
2022-08-05T00:06:39.527Z,100793.13
2022-08-05T00:07:27.525Z,100789.61
2022-08-05T00:07:59.644Z,100787.57
2022-08-05T00:08:35.258Z,100789.40
2022-08-05T00:08:55.910Z,100790.02
2022-08-05T00:09:28.241Z,100789.52
2022-08-05T00:10:02.093Z,100785.91
2022-08-05T00:10:32.515Z,100789.34
2022-08-05T00:11:02.934Z,100785.23
2022-08-05T00:11:47.310Z,100785.74
2022-08-05T00:12:08.687Z,100783.91
2022-08-05T00:12:48.552Z,100784.98
2022-08-05T00:13:18.891Z,100781.63
2022-08-05T00:13:52.961Z,100782.60
2022-08-05T00:14:26.520Z,100781.25
2022-08-05T00:14:58.972Z,100781.75
2022-08-05T00:15:55.456Z,100780.02
2022-08-05T00:16:09.620Z,100781.23
2022-08-05T00:16:52.061Z,100783.05
2022-08-05T00:17:19.554Z,100780.44
2022-08-05T00:17:50.664Z,100780.92
2022-08-05T00:18:22.555Z,100780.35
2022-08-05T00:18:53.166Z,100783.88
2022-08-05T00:19:24.871Z,100779.33
2022-08-05T00:20:02.061Z,100780.75
2022-08-05T00:20:33.434Z,100780.58
2022-08-05T00:21:03.855Z,100783.16
2022-08-05T00:21:37.074Z,100784.73
2022-08-05T00:22:07.500Z,100783.60
2022-08-05T00:22:41.882Z,100781.30
2022-08-05T00:23:17.206Z,100784.67
2022-08-05T00:24:05.039Z,100780.98
2022-08-05T00:24:31.056Z,100782.97
2022-08-05T00:25:01.801Z,100784.28
2022-08-05T00:25:46.014Z,100784.62
2022-08-05T00:26:10.351Z,100780.75
2022-08-05T00:26:43.405Z,100783.55
2022-08-05T00:27:35.848Z,100788.47
2022-08-05T00:27:51.685Z,100783.20
2022-08-05T00:28:29.420Z,100784.31
2022-08-05T00:29:00.267Z,100782.34
2022-08-05T00:29:38.131Z,100783.98
2022-08-05T00:30:11.350Z,100783.60
2022-08-05T00:30:44.204Z,100785.43
2022-08-05T00:31:14.617Z,100776.06
2022-08-05T00:32:10.265Z,100778.47
2022-08-05T00:32:20.376Z,100782.28
2022-08-05T00:32:55.710Z,100780.45
2022-08-05T00:34:53.546Z,100781.23
2022-08-05T00:34:54.216Z,100780.52
2022-08-05T00:34:55.422Z,100781.31
2022-08-05T00:35:13.540Z,100782.08
2022-08-05T00:35:47.761Z,100778.93
2022-08-05T00:37:10.848Z,100781.66
2022-08-05T00:37:11.459Z,100781.68
2022-08-05T00:37:51.176Z,100780.66
2022-08-05T00:38:05.270Z,100785.60
2022-08-05T00:38:39.848Z,100784.45
2022-08-05T00:39:13.976Z,100783.64
2022-08-05T00:39:58.489Z,100782.88
2022-08-05T00:40:27.034Z,100785.12
2022-08-05T00:40:55.332Z,100787.34
2022-08-05T00:41:25.762Z,100784.31
2022-08-05T00:41:56.187Z,100780.08
2022-08-05T00:42:31.875Z,100780.64
2022-08-05T00:43:02.069Z,100780.54
2022-08-05T00:43:46.437Z,100778.25
2022-08-05T00:44:07.853Z,100779.78
2022-08-05T00:44:38.522Z,100778.27
2022-08-05T00:45:11.805Z,100781.20
2022-08-05T00:45:44.098Z,100780.38
2022-08-05T00:46:14.592Z,100779.84
2022-08-05T00:46:46.377Z,100779.55
2022-08-05T00:47:21.782Z,100779.95
2022-08-05T00:47:56.410Z,100782.16
2022-08-05T00:48:31.514Z,100785.42
2022-08-05T00:49:02.079Z,100792.45
2022-08-05T00:49:33.109Z,100794.52
2022-08-05T00:50:08.318Z,100797.32
2022-08-05T00:50:38.737Z,100800.41
2022-08-05T00:51:50.251Z,100825.53
2022-08-05T00:51:51.608Z,100810.53
2022-08-05T00:52:28.458Z,100832.47
2022-08-05T00:52:56.985Z,100839.22
2022-08-05T00:54:00.110Z,100837.27
2022-08-05T00:54:03.250Z,100833.86
2022-08-05T00:54:33.653Z,100828.75
2022-08-05T00:55:04.075Z,100813.45
2022-08-05T00:55:42.869Z,100806.11
2022-08-05T00:56:09.827Z,100808.27
2022-08-05T00:56:40.252Z,100805.20
2022-08-05T00:57:15.668Z,100807.08
2022-08-05T00:57:58.674Z,100807.63
2022-08-05T00:58:27.458Z,100810.08
2022-08-05T00:58:58.087Z,100815.94
2022-08-05T00:59:34.602Z,100820.59
2022-08-05T01:00:05.928Z,100820.66
2022-08-05T01:00:42.201Z,100820.88
2022-08-05T01:01:12.985Z,100818.45
2022-08-05T01:01:48.832Z,100816.02
2022-08-05T01:02:18.772Z,100823.77
2022-08-05T01:02:50.216Z,100820.95
2022-08-05T01:03:22.723Z,100822.41
2022-08-05T01:03:53.726Z,100823.98
2022-08-05T01:04:26.750Z,100827.20
2022-08-05T01:04:59.469Z,100830.03
2022-08-05T01:05:29.887Z,100830.27
2022-08-05T01:06:00.311Z,100829.70
2022-08-05T01:06:32.649Z,100828.11
2022-08-05T01:07:05.162Z,100829.80
2022-08-05T01:07:35.696Z,100824.79
2022-08-05T01:08:41.465Z,100824.23
2022-08-05T01:08:44.620Z,100827.08
2022-08-05T01:09:15.309Z,100826.02
2022-08-05T01:09:55.696Z,100824.41
2022-08-05T01:10:25.810Z,100824.27
2022-08-05T01:10:56.283Z,100834.86
2022-08-05T01:11:33.580Z,100834.52
2022-08-05T01:12:09.278Z,100837.38
2022-08-05T01:12:38.962Z,100840.08
2022-08-05T01:13:19.417Z,100836.77
2022-08-05T01:13:58.611Z,100837.47
2022-08-05T01:14:27.948Z,100836.80
2022-08-05T01:14:58.887Z,100839.36
2022-08-05T01:15:36.077Z,100832.02
2022-08-05T01:16:07.049Z,100833.31
2022-08-05T01:16:37.480Z,100829.48
2022-08-05T01:17:07.969Z,100829.36
2022-08-05T01:17:40.236Z,100834.04
2022-08-05T01:18:10.817Z,100825.12
2022-08-05T01:18:41.909Z,100825.04
2022-08-05T01:19:17.233Z,100818.55
2022-08-05T01:20:00.912Z,100821.45
2022-08-05T01:20:22.977Z,100823.33
2022-08-05T01:20:57.381Z,100822.37
2022-08-05T01:21:38.044Z,100820.20
2022-08-05T01:22:03.123Z,100819.23
2022-08-05T01:22:35.161Z,100822.95
2022-08-05T01:23:15.173Z,100823.42
2022-08-05T01:23:41.344Z,100822.78
2022-08-05T01:24:13.098Z,100821.58
2022-08-05T01:24:44.481Z,100821.52
2022-08-05T01:25:15.041Z,100826.48
2022-08-05T01:25:50.250Z,100826.12
2022-08-05T01:26:20.797Z,100829.77
2022-08-05T01:26:56.121Z,100832.77
2022-08-05T01:27:26.657Z,100834.10
2022-08-05T01:27:57.182Z,100839.40
2022-08-05T01:28:27.601Z,100846.88
2022-08-05T01:28:58.022Z,100843.47
2022-08-05T01:29:30.982Z,100844.77
2022-08-05T01:30:01.402Z,100845.15
2022-08-05T01:30:33.788Z,100842.14
2022-08-05T01:31:05.443Z,100841.33
2022-08-05T01:31:42.745Z,100838.19
2022-08-05T01:32:18.620Z,100837.00
2022-08-05T01:32:48.972Z,100831.45
2022-08-05T01:33:19.693Z,100826.58
2022-08-05T01:33:53.691Z,100832.12
2022-08-05T01:34:26.865Z,100829.00
2022-08-05T01:34:57.490Z,100827.80
2022-08-05T01:35:52.081Z,100831.39
2022-08-05T01:36:03.883Z,100834.34
2022-08-05T01:36:34.963Z,100839.91
2022-08-05T01:37:10.577Z,100839.70
2022-08-05T01:37:45.607Z,100842.48
2022-08-05T01:38:24.758Z,100840.66
2022-08-05T01:38:51.348Z,100839.25
2022-08-05T01:39:45.738Z,100836.59
2022-08-05T01:39:59.091Z,100835.05
2022-08-05T01:40:29.729Z,100831.73
2022-08-05T01:41:01.559Z,100829.86
2022-08-05T01:41:32.199Z,100826.55
2022-08-05T01:42:02.847Z,100828.86
2022-08-05T01:42:33.269Z,100825.81
2022-08-05T01:43:03.788Z,100831.14
2022-08-05T01:43:34.198Z,100833.31
2022-08-05T01:44:04.918Z,100836.66
2022-08-05T01:44:40.240Z,100840.65
2022-08-05T01:45:10.661Z,100838.61
2022-08-05T01:45:43.092Z,100840.48
2022-08-05T01:46:16.350Z,100837.42
2022-08-05T01:46:48.988Z,100836.48
2022-08-05T01:47:23.034Z,100832.88
2022-08-05T01:47:54.447Z,100829.10
2022-08-05T01:48:25.894Z,100822.34
2022-08-05T01:48:57.301Z,100819.56
2022-08-05T01:49:27.719Z,100814.48
2022-08-05T01:50:03.220Z,100815.02
2022-08-05T01:50:36.320Z,100814.02
2022-08-05T01:51:12.343Z,100812.10
2022-08-05T01:51:42.261Z,100816.23
2022-08-05T01:52:19.039Z,100819.33
2022-08-05T01:52:49.782Z,100820.95
2022-08-05T01:53:54.805Z,100827.27
2022-08-05T01:53:58.606Z,100829.05
2022-08-05T01:54:29.397Z,100827.77
2022-08-05T01:55:00.657Z,100827.16
2022-08-05T01:55:31.076Z,100829.57
2022-08-05T01:56:09.048Z,100827.53
2022-08-05T01:58:11.958Z,100824.86
2022-08-05T01:58:12.156Z,100818.16
2022-08-05T01:58:29.224Z,100822.22
2022-08-05T01:58:40.395Z,100815.81
2022-08-05T01:59:00.787Z,100815.97
2022-08-05T01:59:31.209Z,100812.62
2022-08-05T02:00:02.410Z,100815.89
2022-08-05T02:00:32.829Z,100808.47
2022-08-05T02:01:03.781Z,100810.59
2022-08-05T02:01:34.212Z,100812.21
2022-08-05T02:02:10.840Z,100813.23
2022-08-05T02:02:46.488Z,100809.42
2022-08-05T02:03:24.137Z,100812.76
2022-08-05T02:03:52.624Z,100810.70
2022-08-05T02:04:23.263Z,100812.61
2022-08-05T02:04:54.112Z,100816.89
2022-08-05T02:05:25.351Z,100815.33
2022-08-05T02:06:00.810Z,100818.42
2022-08-05T02:06:37.930Z,100819.39
2022-08-05T02:07:06.797Z,100819.19
2022-08-05T02:07:37.401Z,100821.26
2022-08-05T02:08:08.179Z,100821.88
2022-08-05T02:08:54.904Z,100819.84
2022-08-05T02:09:14.694Z,100815.49
2022-08-05T02:09:46.822Z,100819.27
2022-08-05T02:10:19.264Z,100816.97
2022-08-05T02:10:54.585Z,100817.70
2022-08-05T02:11:33.447Z,100814.55
2022-08-05T02:12:00.337Z,100815.98
2022-08-05T02:12:32.798Z,100813.64
2022-08-05T02:13:04.780Z,100808.59
2022-08-05T02:13:53.457Z,100811.30
2022-08-05T02:14:13.934Z,100810.29
2022-08-05T02:14:47.062Z,100807.41
2022-08-05T02:15:19.643Z,100807.20
2022-08-05T02:15:50.314Z,100808.20
2022-08-05T02:16:22.099Z,100806.77
2022-08-05T02:16:53.093Z,100809.16
2022-08-05T02:18:27.482Z,100807.73
2022-08-05T02:18:31.092Z,100808.36
2022-08-05T02:18:35.272Z,100808.06
2022-08-05T02:19:07.240Z,100811.84
2022-08-05T02:19:40.616Z,100813.47
2022-08-05T02:20:13.021Z,100812.42
2022-08-05T02:20:43.443Z,100812.80
2022-08-05T02:21:17.266Z,100809.11
2022-08-05T02:21:49.105Z,100809.17
2022-08-05T02:22:26.483Z,100811.65
2022-08-05T02:22:55.022Z,100808.59
2022-08-05T02:23:25.773Z,100809.14
2022-08-05T02:23:57.794Z,100806.69
2022-08-05T02:24:29.697Z,100807.20
2022-08-05T02:25:00.372Z,100808.43
2022-08-05T02:25:33.139Z,100808.07
2022-08-05T02:26:03.907Z,100809.59
2022-08-05T02:26:34.338Z,100809.25
2022-08-05T02:27:10.305Z,100813.32
2022-08-05T02:27:59.204Z,100810.69
2022-08-05T02:28:15.399Z,100812.78
2022-08-05T02:28:50.720Z,100810.74
2022-08-05T02:29:21.527Z,100813.55
2022-08-05T02:29:59.522Z,100814.85
2022-08-05T02:30:30.624Z,100817.70
2022-08-05T02:31:01.081Z,100818.47
2022-08-05T02:31:35.023Z,100817.92
2022-08-05T02:32:05.590Z,100819.08
2022-08-05T02:32:37.997Z,100821.62
2022-08-05T02:33:10.376Z,100819.62
2022-08-05T02:33:41.476Z,100822.71
2022-08-05T02:34:12.250Z,100827.50
2022-08-05T02:34:42.632Z,100827.23
2022-08-05T02:35:14.240Z,100831.48
2022-08-05T02:35:56.342Z,100830.59
2022-08-05T02:36:20.156Z,100833.68
2022-08-05T02:36:50.586Z,100832.19
2022-08-05T02:37:21.239Z,100833.69
2022-08-05T02:37:54.100Z,100829.78
2022-08-05T02:38:27.003Z,100833.20
2022-08-05T02:38:59.984Z,100830.62
2022-08-05T02:39:30.803Z,100829.61
2022-08-05T02:40:02.678Z,100825.54
2022-08-05T02:40:34.248Z,100825.75
2022-08-05T02:41:14.592Z,100820.41
2022-08-05T02:41:58.164Z,100820.80
2022-08-05T02:42:25.886Z,100819.60
2022-08-05T02:42:52.630Z,100820.96
2022-08-05T02:43:24.325Z,100819.84
2022-08-05T02:44:06.524Z,100814.93
2022-08-05T02:44:30.062Z,100817.89
2022-08-05T02:45:00.476Z,100815.39
2022-08-05T02:45:52.897Z,100815.12
2022-08-05T02:46:06.992Z,100811.73
2022-08-05T02:46:53.807Z,100809.88
2022-08-05T02:47:17.641Z,100811.33
2022-08-05T02:48:07.325Z,100810.34
2022-08-05T02:48:28.977Z,100812.93
2022-08-05T02:48:58.702Z,100814.45
2022-08-05T02:49:35.842Z,100813.61
2022-08-05T02:50:04.444Z,100819.62
2022-08-05T02:50:37.632Z,100816.25
2022-08-05T02:51:08.053Z,100815.70
2022-08-05T02:52:03.250Z,100817.70
2022-08-05T02:52:29.769Z,100815.45
2022-08-05T02:52:49.628Z,100814.69
2022-08-05T02:53:20.047Z,100815.37
2022-08-05T02:53:50.464Z,100818.44
2022-08-05T02:54:36.073Z,100817.77
2022-08-05T02:55:01.876Z,100822.28
2022-08-05T02:55:54.207Z,100823.50
2022-08-05T02:56:11.282Z,100821.12
2022-08-05T02:56:46.526Z,100824.19
2022-08-05T02:58:09.414Z,100827.75
2022-08-05T02:58:11.718Z,100820.96
2022-08-05T02:58:30.151Z,100826.05
2022-08-05T02:59:00.821Z,100822.79
2022-08-05T02:59:47.848Z,100823.09
2022-08-05T03:00:06.844Z,100826.41
2022-08-05T03:00:37.262Z,100827.55
2022-08-05T03:01:09.491Z,100832.45
2022-08-05T03:01:41.698Z,100831.81
2022-08-05T03:02:12.612Z,100829.20
2022-08-05T03:02:44.163Z,100830.98
2022-08-05T03:03:15.052Z,100830.14
2022-08-05T03:04:02.238Z,100826.73
2022-08-05T03:04:23.105Z,100824.54
2022-08-05T03:04:53.540Z,100823.31
2022-08-05T03:06:54.114Z,100819.32
2022-08-05T03:06:54.853Z,100820.47
2022-08-05T03:06:55.155Z,100818.00
2022-08-05T03:07:09.923Z,100819.92
2022-08-05T03:08:04.620Z,100818.27
2022-08-05T03:08:29.599Z,100813.69
2022-08-05T03:08:55.891Z,100809.80
2022-08-05T03:09:27.226Z,100816.32
2022-08-05T03:10:02.313Z,100810.69
2022-08-05T03:10:32.685Z,100811.70
2022-08-05T03:11:54.612Z,100808.81
2022-08-05T03:11:56.529Z,100806.84
2022-08-05T03:12:14.365Z,100805.94
2022-08-05T03:12:47.705Z,100807.50
2022-08-05T03:13:22.337Z,100806.97
2022-08-05T03:14:02.834Z,100807.11
2022-08-05T03:14:32.980Z,100808.43
2022-08-05T03:15:03.399Z,100807.22
2022-08-05T03:15:37.277Z,100804.41
2022-08-05T03:16:08.606Z,100804.11
2022-08-05T03:16:39.595Z,100803.09
2022-08-05T03:17:10.022Z,100805.34
2022-08-05T03:17:41.515Z,100805.47
2022-08-05T03:18:12.494Z,100803.78
2022-08-05T03:18:47.695Z,100802.58
2022-08-05T03:19:32.988Z,100802.41
2022-08-05T03:19:54.457Z,100802.41
2022-08-05T03:20:28.917Z,100803.84
2022-08-05T03:20:59.351Z,100803.17
2022-08-05T03:21:33.188Z,100800.02
2022-08-05T03:22:15.975Z,100798.33
2022-08-05T03:22:46.818Z,100797.20
2022-08-05T03:23:15.889Z,100792.80
2022-08-05T03:23:46.808Z,100793.16
2022-08-05T03:24:17.470Z,100793.80
2022-08-05T03:24:51.011Z,100793.16
2022-08-05T03:25:33.343Z,100789.83
2022-08-05T03:26:30.433Z,100791.64
2022-08-05T03:26:33.104Z,100794.52
2022-08-05T03:27:03.536Z,100786.77
2022-08-05T03:27:58.028Z,100786.05
2022-08-05T03:28:14.071Z,100787.56
2022-08-05T03:28:44.560Z,100781.33
2022-08-05T03:29:17.345Z,100780.38
2022-08-05T03:30:07.827Z,100782.11
2022-08-05T03:30:33.468Z,100782.28
2022-08-05T03:30:59.127Z,100780.66
2022-08-05T03:31:55.373Z,100781.02
2022-08-05T03:32:04.882Z,100785.28
2022-08-05T03:32:39.004Z,100784.01
2022-08-05T03:33:09.434Z,100781.55
2022-08-05T03:33:42.346Z,100780.72
2022-08-05T03:34:15.171Z,100781.00
2022-08-05T03:34:51.330Z,100781.55
2022-08-05T03:35:20.912Z,100782.57
2022-08-05T03:35:51.798Z,100781.34
2022-08-05T03:36:29.781Z,100780.83
2022-08-05T03:36:57.504Z,100784.73
2022-08-05T03:37:27.931Z,100786.53
2022-08-05T03:37:58.358Z,100785.38
2022-08-05T03:38:33.385Z,100789.86
2022-08-05T03:39:04.136Z,100791.34
2022-08-05T03:39:38.319Z,100790.11
2022-08-05T03:40:12.025Z,100789.34
2022-08-05T03:40:45.316Z,100790.60
2022-08-05T03:41:17.857Z,100789.30
2022-08-05T03:41:53.179Z,100794.44
2022-08-05T03:42:27.011Z,100791.91
2022-08-05T03:42:59.339Z,100792.25
2022-08-05T03:44:09.179Z,100793.64
2022-08-05T03:44:11.086Z,100799.80
2022-08-05T03:44:42.300Z,100798.70
2022-08-05T03:45:21.647Z,100798.66
2022-08-05T03:45:55.217Z,100802.31
2022-08-05T03:46:23.364Z,100799.73
2022-08-05T03:46:58.687Z,100803.77
2022-08-05T03:47:35.239Z,100805.59
2022-08-05T03:48:04.437Z,100808.09
2022-08-05T03:48:35.701Z,100809.89
2022-08-05T03:49:07.004Z,100808.45
2022-08-05T03:49:51.832Z,100812.29
2022-08-05T03:50:13.766Z,100811.11
2022-08-05T03:50:45.476Z,100812.17
2022-08-05T03:52:37.323Z,100808.53
2022-08-05T03:52:39.199Z,100812.81
2022-08-05T03:52:48.835Z,100814.72
2022-08-05T03:55:00.290Z,100813.06
2022-08-05T03:55:06.917Z,100813.36
2022-08-05T03:55:50.630Z,100814.14
2022-08-05T03:55:50.694Z,100813.83
2022-08-05T03:56:05.426Z,100812.00
2022-08-05T03:56:11.707Z,100813.06
2022-08-05T03:56:35.198Z,100811.92
2022-08-05T03:57:16.353Z,100811.97
2022-08-05T03:57:42.965Z,100810.17
2022-08-05T03:58:14.927Z,100806.31
2022-08-05T03:58:45.346Z,100807.53
2022-08-05T03:59:15.767Z,100809.34
2022-08-05T03:59:54.454Z,100810.17
2022-08-05T04:00:25.402Z,100809.84
2022-08-05T04:00:56.976Z,100811.81
2022-08-05T04:01:27.464Z,100812.44
2022-08-05T04:02:02.772Z,100809.59
2022-08-05T04:02:37.503Z,100809.73
2022-08-05T04:03:09.367Z,100811.97
2022-08-05T04:04:05.446Z,100809.20
2022-08-05T04:04:21.267Z,100812.10
2022-08-05T04:04:51.845Z,100809.01
2022-08-05T04:05:24.485Z,100807.65
2022-08-05T04:05:59.052Z,100810.88
2022-08-05T04:06:29.704Z,100808.22
2022-08-05T04:07:00.120Z,100809.44
2022-08-05T04:07:30.545Z,100811.48
2022-08-05T04:08:03.419Z,100810.34
2022-08-05T04:08:37.041Z,100812.27
2022-08-05T04:09:07.483Z,100811.29
2022-08-05T04:09:38.043Z,100811.67
2022-08-05T04:10:13.365Z,100809.75
2022-08-05T04:10:47.894Z,100812.95
2022-08-05T04:11:18.886Z,100809.47
2022-08-05T04:11:52.991Z,100815.69
2022-08-05T04:12:24.656Z,100812.42
2022-08-05T04:12:55.251Z,100816.72
2022-08-05T04:13:25.666Z,100815.23
2022-08-05T04:14:00.984Z,100815.77
2022-08-05T04:14:31.403Z,100816.00
2022-08-05T04:15:01.824Z,100815.80
2022-08-05T04:15:36.251Z,100819.72
2022-08-05T04:16:06.918Z,100820.48
2022-08-05T04:16:37.339Z,100824.94
2022-08-05T04:17:07.772Z,100821.98
2022-08-05T04:17:56.091Z,100822.83
2022-08-05T04:18:20.508Z,100824.99
2022-08-05T04:18:48.832Z,100828.95
2022-08-05T04:19:24.158Z,100831.50
2022-08-05T04:19:54.694Z,100827.41
2022-08-05T04:20:29.102Z,100828.75
2022-08-05T04:20:59.520Z,100830.52
2022-08-05T04:22:09.044Z,100830.27
2022-08-05T04:22:11.642Z,100830.84
2022-08-05T04:22:41.033Z,100833.62
2022-08-05T04:23:12.589Z,100835.16
2022-08-05T04:24:05.618Z,100833.60
2022-08-05T04:24:22.758Z,100836.38
2022-08-05T04:24:53.222Z,100832.41
2022-08-05T04:25:38.519Z,100834.28
2022-08-05T04:26:00.550Z,100829.73
2022-08-05T04:26:32.449Z,100831.92
2022-08-05T04:27:02.983Z,100833.36
2022-08-05T04:27:43.850Z,100832.27
2022-08-05T04:28:11.302Z,100827.69
2022-08-05T04:28:51.045Z,100831.45
2022-08-05T04:29:18.398Z,100832.98
2022-08-05T04:29:50.091Z,100835.84
2022-08-05T04:30:21.210Z,100833.34
2022-08-05T04:30:51.670Z,100834.30
2022-08-05T04:31:22.509Z,100832.91
2022-08-05T04:31:57.840Z,100833.21
2022-08-05T04:32:31.235Z,100833.81
2022-08-05T04:33:03.652Z,100834.12
2022-08-05T04:33:36.373Z,100834.41
2022-08-05T04:34:31.383Z,100831.08
2022-08-05T04:34:45.390Z,100830.74
2022-08-05T04:35:19.443Z,100826.19
2022-08-05T04:36:15.598Z,100825.81
2022-08-05T04:36:49.598Z,100829.71
2022-08-05T04:37:00.884Z,100825.47
2022-08-05T04:38:02.724Z,100826.22
2022-08-05T04:38:08.926Z,100820.66
2022-08-05T04:38:40.259Z,100820.41
2022-08-05T04:39:12.391Z,100818.17
2022-08-05T04:39:43.505Z,100816.81
2022-08-05T04:40:13.913Z,100820.58
2022-08-05T04:40:50.886Z,100818.59
2022-08-05T04:41:21.408Z,100819.98
2022-08-05T04:41:56.737Z,100815.57
2022-08-05T04:42:27.156Z,100815.65
2022-08-05T04:42:57.576Z,100819.55
2022-08-05T04:43:27.998Z,100816.33
2022-08-05T04:43:58.420Z,100819.30
2022-08-05T04:44:30.616Z,100817.14
2022-08-05T04:45:01.159Z,100819.11
2022-08-05T04:45:48.231Z,100815.55
2022-08-05T04:46:08.515Z,100818.53
2022-08-05T04:46:39.286Z,100816.45
2022-08-05T04:47:10.498Z,100818.48
2022-08-05T04:47:42.846Z,100815.81
2022-08-05T04:48:27.303Z,100810.95
2022-08-05T04:48:51.986Z,100810.55
2022-08-05T04:49:24.624Z,100812.74
2022-08-05T04:50:02.152Z,100806.38
2022-08-05T04:50:37.693Z,100805.91
2022-08-05T04:51:11.446Z,100806.11
2022-08-05T04:51:41.236Z,100803.20
2022-08-05T04:52:13.046Z,100807.23
2022-08-05T04:52:43.466Z,100804.67
2022-08-05T04:53:15.176Z,100806.02
2022-08-05T04:53:46.518Z,100805.05
2022-08-05T04:54:16.935Z,100803.56
2022-08-05T04:54:49.463Z,100802.16
2022-08-05T04:55:34.016Z,100801.53
2022-08-05T04:56:32.400Z,100800.66
2022-08-05T04:56:34.421Z,100804.60
2022-08-05T04:57:05.905Z,100805.00
2022-08-05T04:57:37.206Z,100806.56
2022-08-05T04:58:07.772Z,100805.73
2022-08-05T04:58:42.805Z,100808.19
2022-08-05T04:59:21.996Z,100807.45
2022-08-05T04:59:48.548Z,100809.11
2022-08-05T05:00:18.965Z,100808.09
2022-08-05T05:00:54.089Z,100811.66
2022-08-05T05:01:33.590Z,100811.34
2022-08-05T05:02:08.031Z,100812.14
2022-08-05T05:02:43.017Z,100815.06
2022-08-05T05:03:10.528Z,100812.93
2022-08-05T05:03:42.171Z,100815.91
2022-08-05T05:04:13.191Z,100819.25
2022-08-05T05:04:47.743Z,100815.80
2022-08-05T05:05:28.289Z,100817.45
2022-08-05T05:06:35.868Z,100823.63
2022-08-05T05:06:35.950Z,100819.56
2022-08-05T05:07:04.901Z,100822.70
2022-08-05T05:07:39.799Z,100823.95
2022-08-05T05:08:26.569Z,100827.27
2022-08-05T05:08:50.443Z,100829.02
2022-08-05T05:09:20.864Z,100831.36
2022-08-05T05:09:52.412Z,100834.02
2022-08-05T05:10:24.326Z,100834.73
2022-08-05T05:10:56.348Z,100837.79
2022-08-05T05:11:41.623Z,100840.27
2022-08-05T05:12:02.247Z,100840.48
2022-08-05T05:12:33.539Z,100841.05
2022-08-05T05:13:04.591Z,100842.05
2022-08-05T05:13:43.238Z,100841.58
2022-08-05T05:14:10.388Z,100842.46
2022-08-05T05:14:49.559Z,100845.52
2022-08-05T05:15:57.608Z,100845.25
2022-08-05T05:16:02.156Z,100847.83
2022-08-05T05:16:31.674Z,100845.08
2022-08-05T05:17:03.887Z,100846.61
2022-08-05T05:17:56.510Z,100852.81
2022-08-05T05:18:13.338Z,100848.77
2022-08-05T05:19:02.557Z,100852.64
2022-08-05T05:19:23.607Z,100855.77
2022-08-05T05:19:54.891Z,100861.76
2022-08-05T05:20:28.684Z,100862.30
2022-08-05T05:20:59.305Z,100863.23
2022-08-05T05:21:30.722Z,100867.64
2022-08-05T05:22:24.219Z,100872.05
2022-08-05T05:22:40.707Z,100875.38
2022-08-05T05:23:19.612Z,100880.09
2022-08-05T05:24:02.731Z,100881.72
2022-08-05T05:24:22.096Z,100885.61
2022-08-05T05:24:56.956Z,100887.48
2022-08-05T05:25:40.507Z,100891.89
2022-08-05T05:26:03.159Z,100894.50
2022-08-05T05:26:33.580Z,100896.75
2022-08-05T05:27:06.025Z,100901.80
2022-08-05T05:27:44.309Z,100904.06
2022-08-05T05:28:12.194Z,100904.70
2022-08-05T05:28:44.831Z,100911.92
2022-08-05T05:29:15.626Z,100909.25
2022-08-05T05:30:04.129Z,100909.89
2022-08-05T05:30:29.305Z,100910.47
2022-08-05T05:30:56.696Z,100909.87
2022-08-05T05:31:35.953Z,100909.19
2022-08-05T05:32:02.438Z,100908.84
2022-08-05T05:32:34.289Z,100910.68
2022-08-05T05:33:16.134Z,100911.66
2022-08-05T05:33:58.820Z,100909.62
2022-08-05T05:34:21.195Z,100903.65
2022-08-05T05:34:52.337Z,100905.25
2022-08-05T05:35:22.913Z,100904.33
2022-08-05T05:35:53.332Z,100905.33
2022-08-05T05:36:23.752Z,100907.95
2022-08-05T05:36:58.793Z,100904.22
2022-08-05T05:37:58.859Z,100904.62
2022-08-05T05:38:05.620Z,100905.98
2022-08-05T05:38:39.335Z,100907.54
2022-08-05T05:39:13.041Z,100907.61
2022-08-05T05:39:44.680Z,100909.31
2022-08-05T05:40:15.686Z,100907.72
2022-08-05T05:40:49.730Z,100905.38
2022-08-05T05:41:21.427Z,100908.67
2022-08-05T05:41:54.088Z,100907.05
2022-08-05T05:42:25.018Z,100904.59
2022-08-05T05:42:55.437Z,100905.45
2022-08-05T05:43:54.039Z,100906.97
2022-08-05T05:44:02.052Z,100903.52
2022-08-05T05:44:36.583Z,100906.13
2022-08-05T05:45:07.788Z,100906.75
2022-08-05T05:45:39.428Z,100901.91
2022-08-05T05:46:17.492Z,100905.53
2022-08-05T05:46:48.570Z,100904.61
2022-08-05T05:47:30.510Z,100907.16
2022-08-05T05:48:06.869Z,100905.28
2022-08-05T05:48:32.184Z,100906.98
2022-08-05T05:49:06.407Z,100904.70
2022-08-05T05:49:40.195Z,100909.17
2022-08-05T05:50:10.620Z,100907.95
2022-08-05T05:50:45.943Z,100915.20
2022-08-05T05:51:16.361Z,100914.61
2022-08-05T05:51:49.900Z,100918.77
2022-08-05T05:52:28.677Z,100918.09
2022-08-05T05:52:56.403Z,100926.57
2022-08-05T05:53:27.586Z,100926.98
2022-08-05T05:53:59.817Z,100929.77
2022-08-05T05:54:49.741Z,100938.55
2022-08-05T05:55:07.471Z,100939.78
2022-08-05T05:55:51.550Z,100949.00
2022-08-05T05:56:16.382Z,100950.56
2022-08-05T05:56:51.706Z,100951.92
2022-08-05T05:57:23.398Z,100958.49
2022-08-05T05:57:53.780Z,100961.92
2022-08-05T05:58:31.963Z,100962.34
2022-08-05T05:59:03.233Z,100966.94
2022-08-05T05:59:40.287Z,100968.91
2022-08-05T06:00:10.214Z,100969.95
2022-08-05T06:00:41.299Z,100967.27
2022-08-05T06:01:16.624Z,100973.34
2022-08-05T06:01:57.313Z,100964.72
2022-08-05T06:02:36.668Z,100970.55
2022-08-05T06:02:57.699Z,100974.93
2022-08-05T06:03:54.056Z,100969.84
2022-08-05T06:04:04.751Z,100973.95
2022-08-05T06:04:35.195Z,100973.57
2022-08-05T06:05:14.654Z,100974.59
2022-08-05T06:05:40.918Z,100976.76
2022-08-05T06:06:12.440Z,100974.05
2022-08-05T06:06:43.172Z,100979.88
2022-08-05T06:07:17.947Z,100978.32
2022-08-05T06:08:01.261Z,100983.64
2022-08-05T06:08:32.397Z,100982.25
2022-08-05T06:09:04.079Z,100980.52
2022-08-05T06:09:52.626Z,100982.80
2022-08-05T06:10:10.543Z,100983.61
2022-08-05T06:10:49.099Z,100985.13
2022-08-05T06:11:16.354Z,100989.69
2022-08-05T06:11:59.161Z,100978.70
2022-08-05T06:12:22.228Z,100981.34
2022-08-05T06:12:57.589Z,100981.92
2022-08-05T06:13:27.969Z,100979.24
2022-08-05T06:14:03.295Z,100985.82
2022-08-05T06:14:34.791Z,100982.09
2022-08-05T06:15:05.301Z,100986.80
2022-08-05T06:16:28.927Z,100992.70
2022-08-05T06:16:30.385Z,100983.75